METAR Data
IDs: Format: Raw Decoded Include TAF

Data at: 1352 UTC 07 Oct 2022

EGAC 071320Z AUTO 25015KT 230V300 9999 FEW037/// //////TCU 14/06 Q1010